NCAR-RAP Real-Time Weather Data

Output produced by METARs form (23 February 2020  01:38 UTC)
found at http://weather.rap.ucar.edu/surface/
 
KDLH 230055Z 21006KT 10SM CLR 02/M06 A2978 RMK AO2 SLP106 T00171061
KDLH 222355Z 20004KT 10SM CLR 04/M06 A2978 RMK AO2 SLP108 T00391061 10056 20033 56009